Time;durP1;ratioP1;P1;durP2;ratioP2;P2;SDS_P1;SDS_P2;PMS_P1;PMS_P2;Temp;Humidity;BMP_temperature;BMP_pressure;BME280_temperature;BME280_humidity;BME280_pressure;Samples;Min_cycle;Max_cycle;Signal;HPM_P1;HPM_P2
2023/12/30 00:00:37;;;;;;;10.93;2.53;;;11.50;76.20;;;;;;5050751;28;20045;-57
2023/12/30 00:03:04;;;;;;;7.28;2.50;;;11.50;76.40;;;;;;5050767;28;20110;-56
2023/12/30 00:05:35;;;;;;;7.35;2.50;;;11.50;76.40;;;;;;5050626;28;20064;-53
2023/12/30 00:08:05;;;;;;;10.10;2.90;;;11.50;76.40;;;;;;5052646;28;20044;-60
2023/12/30 00:10:35;;;;;;;7.15;2.60;;;11.50;76.40;;;;;;5053857;28;20063;-58
2023/12/30 00:13:02;;;;;;;6.55;2.35;;;11.50;76.30;;;;;;5057463;28;20048;-56
2023/12/30 00:15:29;;;;;;;9.45;3.33;;;11.50;76.40;;;;;;5054311;28;20426;-57
2023/12/30 00:17:59;;;;;;;9.85;2.65;;;11.50;76.40;;;;;;5054225;28;20502;-53
2023/12/30 00:20:30;;;;;;;8.02;2.38;;;11.40;76.40;;;;;;5048770;28;20056;-55
2023/12/30 00:22:57;;;;;;;9.27;2.17;;;11.40;76.60;;;;;;5052036;28;20522;-60
2023/12/30 00:25:26;;;;;;;6.72;1.75;;;11.40;76.80;;;;;;5054937;28;20087;-57
2023/12/30 00:27:55;;;;;;;5.47;2.28;;;11.40;76.90;;;;;;5057756;28;20132;-58
2023/12/30 00:30:22;;;;;;;8.77;2.35;;;11.50;76.90;;;;;;5054162;28;20503;-57
2023/12/30 00:32:53;;;;;;;6.82;2.42;;;11.50;76.80;;;;;;5052799;28;20041;-55
2023/12/30 00:35:25;;;;;;;4.43;1.58;;;11.50;77.00;;;;;;5052154;28;20445;-57
2023/12/30 00:37:54;;;;;;;5.53;1.58;;;11.60;76.80;;;;;;5056693;28;20128;-56
2023/12/30 00:40:23;;;;;;;3.55;0.90;;;11.60;77.20;;;;;;5055623;28;20037;-55
2023/12/30 00:42:53;;;;;;;3.40;0.80;;;11.50;77.50;;;;;;5053197;28;20131;-57
2023/12/30 00:45:20;;;;;;;4.00;0.93;;;11.50;77.70;;;;;;5055944;28;20640;-56
2023/12/30 00:47:57;;;;;;;4.47;1.58;;;11.40;78.20;;;;;;5057734;28;20044;-56
2023/12/30 00:50:24;;;;;;;5.72;1.33;;;11.30;79.10;;;;;;5051040;28;20036;-56
2023/12/30 00:52:54;;;;;;;3.38;1.50;;;11.20;79.30;;;;;;5048081;28;20507;-56
2023/12/30 00:55:23;;;;;;;3.00;1.55;;;11.10;79.70;;;;;;5054410;28;20087;-56
2023/12/30 00:57:53;;;;;;;5.80;1.55;;;11.10;80.00;;;;;;5053214;28;20051;-54
2023/12/30 01:00:19;;;;;;;12.02;2.65;;;11.10;80.40;;;;;;5048104;28;20526;-54
2023/12/30 01:02:49;;;;;;;6.63;2.25;;;11.10;80.70;;;;;;5048190;28;20051;-54
2023/12/30 01:05:15;;;;;;;9.30;2.25;;;11.00;81.00;;;;;;5063444;28;20045;-55
2023/12/30 01:07:45;;;;;;;10.90;2.78;;;11.00;81.20;;;;;;5046577;28;20077;-55
2023/12/30 01:10:11;;;;;;;8.20;2.72;;;11.00;81.50;;;;;;5057856;28;20576;-55
2023/12/30 01:12:38;;;;;;;8.07;2.40;;;11.00;81.70;;;;;;5055385;28;20403;-54
2023/12/30 01:15:09;;;;;;;11.02;3.03;;;11.00;81.90;;;;;;5049853;28;20076;-55
2023/12/30 01:17:40;;;;;;;12.77;2.70;;;11.00;81.90;;;;;;5052398;28;20044;-56
2023/12/30 01:20:07;;;;;;;9.82;2.53;;;10.90;82.00;;;;;;5050645;28;20418;-55
2023/12/30 01:22:38;;;;;;;16.75;3.13;;;10.90;82.10;;;;;;5050738;28;20156;-57
2023/12/30 01:25:09;;;;;;;9.32;2.95;;;10.90;82.60;;;;;;5056046;28;20055;-55
2023/12/30 01:27:36;;;;;;;6.72;3.63;;;10.90;82.20;;;;;;5054987;28;20051;-56
2023/12/30 01:30:04;;;;;;;11.27;2.40;;;10.90;82.20;;;;;;5058558;28;20041;-55
2023/12/30 01:32:31;;;;;;;8.48;3.13;;;10.90;82.30;;;;;;5046263;28;20565;-57
2023/12/30 01:35:03;;;;;;;6.68;2.55;;;10.90;82.40;;;;;;5063548;28;20083;-54
2023/12/30 01:37:33;;;;;;;12.63;3.60;;;10.90;82.60;;;;;;5051938;28;20047;-56
2023/12/30 01:40:00;;;;;;;8.40;2.88;;;10.90;82.80;;;;;;5055195;28;20040;-55
2023/12/30 01:42:26;;;;;;;9.48;2.80;;;10.90;82.70;;;;;;5054484;28;20040;-53
2023/12/30 01:44:55;;;;;;;12.07;3.03;;;10.80;82.60;;;;;;5057494;28;20065;-56
2023/12/30 01:47:26;;;;;;;11.35;2.38;;;10.90;82.60;;;;;;5055702;28;20614;-54
2023/12/30 01:49:58;;;;;;;9.90;2.72;;;10.80;82.60;;;;;;5053099;28;20045;-55
2023/12/30 01:52:25;;;;;;;8.02;3.30;;;10.80;82.60;;;;;;5046324;28;20045;-56
2023/12/30 01:54:54;;;;;;;11.68;2.45;;;10.80;82.80;;;;;;5053810;28;20047;-55
2023/12/30 01:57:26;;;;;;;9.27;2.70;;;10.80;82.70;;;;;;5054438;28;20634;-54
2023/12/30 01:59:53;;;;;;;11.88;2.65;;;10.80;82.90;;;;;;5062092;28;20053;-56
2023/12/30 02:02:23;;;;;;;6.90;2.17;;;10.80;83.00;;;;;;5047000;28;20141;-56
2023/12/30 02:04:50;;;;;;;7.20;2.55;;;10.80;83.20;;;;;;5048936;28;20086;-56
2023/12/30 02:07:21;;;;;;;7.05;2.63;;;10.80;83.20;;;;;;5045992;28;20135;-53
2023/12/30 02:09:53;;;;;;;8.25;2.58;;;10.80;83.20;;;;;;5053270;28;20041;-57
2023/12/30 02:12:21;;;;;;;7.45;2.63;;;10.80;83.10;;;;;;5056229;28;20057;-52
2023/12/30 02:14:51;;;;;;;10.10;2.70;;;10.80;83.00;;;;;;5056917;28;20034;-55
2023/12/30 02:17:20;;;;;;;10.77;2.80;;;10.80;83.00;;;;;;5052571;28;20064;-56
2023/12/30 02:19:47;;;;;;;13.00;2.67;;;10.80;82.90;;;;;;5057665;28;20068;-54
2023/12/30 02:22:15;;;;;;;8.25;2.13;;;10.80;82.90;;;;;;5053343;28;20063;-56
2023/12/30 02:24:44;;;;;;;8.02;2.78;;;10.80;83.10;;;;;;5053258;28;20499;-53
2023/12/30 02:27:13;;;;;;;10.38;3.00;;;10.80;83.20;;;;;;5060178;28;20048;-55
2023/12/30 02:29:42;;;;;;;17.25;3.13;;;10.80;83.20;;;;;;5057598;28;20584;-57
2023/12/30 02:32:11;;;;;;;6.65;2.78;;;10.80;83.20;;;;;;5054717;28;20038;-56
2023/12/30 02:34:41;;;;;;;8.18;2.05;;;10.80;83.20;;;;;;5051540;28;20045;-53
2023/12/30 02:37:08;;;;;;;8.38;2.40;;;10.90;83.30;;;;;;5057331;28;20053;-56
2023/12/30 02:39:34;;;;;;;5.97;1.95;;;10.80;83.20;;;;;;5057362;28;20041;-56
2023/12/30 02:42:07;;;;;;;6.75;2.58;;;10.90;83.20;;;;;;5046812;28;20110;-54
2023/12/30 02:44:38;;;;;;;9.20;2.67;;;10.90;83.10;;;;;;5061537;28;20045;-56
2023/12/30 02:47:04;;;;;;;14.18;2.80;;;10.80;83.00;;;;;;5054680;28;20044;-56
2023/12/30 02:49:33;;;;;;;8.25;2.80;;;10.90;83.00;;;;;;5060252;28;20053;-55
2023/12/30 02:52:00;;;;;;;6.90;2.78;;;10.80;82.90;;;;;;5050168;28;20571;-56
2023/12/30 02:54:28;;;;;;;7.72;2.97;;;10.80;82.90;;;;;;5055186;28;20066;-54
2023/12/30 02:57:00;;;;;;;11.93;2.92;;;10.80;82.80;;;;;;5062012;28;20068;-56
2023/12/30 02:59:29;;;;;;;7.25;2.28;;;10.80;82.80;;;;;;5050414;28;20045;-55
2023/12/30 03:01:56;;;;;;;8.10;2.83;;;10.80;82.60;;;;;;5051587;28;20079;-56
2023/12/30 03:04:27;;;;;;;8.05;2.40;;;10.80;82.70;;;;;;5050562;28;20053;-54
2023/12/30 03:06:54;;;;;;;8.75;2.13;;;10.80;82.80;;;;;;5050170;28;20057;-56
2023/12/30 03:09:27;;;;;;;8.02;2.50;;;10.70;82.70;;;;;;5056239;28;20045;-56
2023/12/30 03:11:53;;;;;;;11.40;2.90;;;10.70;82.70;;;;;;5060986;28;20095;-54
2023/12/30 03:14:22;;;;;;;13.45;2.53;;;10.70;82.70;;;;;;5063749;28;20044;-52
2023/12/30 03:16:49;;;;;;;7.10;2.17;;;10.70;82.70;;;;;;5056852;28;20095;-56
2023/12/30 03:19:19;;;;;;;9.65;2.33;;;10.70;82.70;;;;;;5063047;28;20048;-55
2023/12/30 03:21:45;;;;;;;8.15;2.58;;;10.70;82.80;;;;;;5057674;28;20047;-57
2023/12/30 03:24:12;;;;;;;8.50;2.50;;;10.70;82.80;;;;;;5056466;28;20043;-56
2023/12/30 03:26:45;;;;;;;12.20;2.83;;;10.70;82.80;;;;;;5063817;28;20432;-55
2023/12/30 03:29:14;;;;;;;10.77;2.50;;;10.70;82.70;;;;;;5065209;28;20040;-56
2023/12/30 03:31:43;;;;;;;12.20;2.80;;;10.70;82.70;;;;;;5055079;28;20043;-56
2023/12/30 03:34:15;;;;;;;11.93;2.50;;;10.70;82.70;;;;;;5063713;28;20052;-57
2023/12/30 03:36:44;;;;;;;8.23;2.20;;;10.70;82.70;;;;;;5058818;28;20033;-53
2023/12/30 03:39:13;;;;;;;11.07;2.75;;;10.60;82.80;;;;;;5065075;28;20040;-55
2023/12/30 03:41:43;;;;;;;7.32;2.08;;;10.60;82.80;;;;;;5054576;28;20052;-56
2023/12/30 03:44:13;;;;;;;9.93;2.13;;;10.70;82.80;;;;;;5065568;28;20041;-54
2023/12/30 03:46:42;;;;;;;9.65;2.22;;;10.60;82.80;;;;;;5067191;28;20045;-55
2023/12/30 03:49:11;;;;;;;6.90;2.30;;;10.60;82.70;;;;;;5052331;28;20040;-56
2023/12/30 03:51:43;;;;;;;14.60;2.97;;;10.60;82.70;;;;;;5050843;28;20042;-54
2023/12/30 03:54:11;;;;;;;8.85;2.35;;;10.60;82.60;;;;;;5053191;28;20043;-56
2023/12/30 03:56:40;;;;;;;10.57;3.33;;;10.60;82.50;;;;;;5060005;28;21350;-53
2023/12/30 03:59:08;;;;;;;10.60;2.65;;;10.60;82.60;;;;;;5053070;28;20056;-57
2023/12/30 04:01:37;;;;;;;7.75;2.22;;;10.60;82.70;;;;;;5050308;28;20037;-54
2023/12/30 04:04:05;;;;;;;7.93;2.60;;;10.60;82.70;;;;;;5049826;28;20057;-54
2023/12/30 04:06:36;;;;;;;12.82;2.55;;;10.60;82.80;;;;;;5049221;28;20587;-57
2023/12/30 04:09:06;;;;;;;9.13;2.97;;;10.60;82.70;;;;;;5067287;28;20033;-56
2023/12/30 04:11:35;;;;;;;14.45;3.05;;;10.60;82.80;;;;;;5061898;28;20037;-53
2023/12/30 04:14:04;;;;;;;6.78;2.45;;;10.60;82.80;;;;;;5065675;28;20131;-53
2023/12/30 04:16:36;;;;;;;11.98;3.33;;;10.60;83.40;;;;;;5047158;28;20041;-54
2023/12/30 04:19:09;;;;;;;9.23;3.17;;;10.60;82.70;;;;;;5059330;28;20421;-55
2023/12/30 04:21:40;;;;;;;12.00;3.58;;;10.60;82.70;;;;;;5055577;28;20053;-54
2023/12/30 04:24:10;;;;;;;11.93;2.40;;;10.60;82.60;;;;;;5056201;28;20102;-56
2023/12/30 04:26:40;;;;;;;12.13;3.13;;;10.60;82.60;;;;;;5061859;28;20049;-52
2023/12/30 04:29:09;;;;;;;9.95;2.97;;;10.60;82.60;;;;;;5053129;28;20052;-51
2023/12/30 04:31:43;;;;;;;7.72;2.50;;;10.50;83.10;;;;;;5052495;28;20041;-55
2023/12/30 04:34:12;;;;;;;14.50;3.47;;;10.60;82.50;;;;;;5061477;28;20539;-55
2023/12/30 04:36:43;;;;;;;5.75;3.22;;;10.50;82.50;;;;;;5062579;28;20029;-56
2023/12/30 04:39:25;;;;;;;12.43;2.95;;;10.50;82.50;;;;;;5055538;28;20132;-57
2023/12/30 04:41:56;;;;;;;8.75;2.28;;;10.50;82.50;;;;;;5054423;28;20056;-55
2023/12/30 04:44:23;;;;;;;9.27;2.80;;;10.50;82.60;;;;;;5060184;28;20438;-57
2023/12/30 04:46:53;;;;;;;9.02;2.83;;;10.50;82.60;;;;;;5063587;28;20064;-56
2023/12/30 04:49:20;;;;;;;7.53;2.65;;;10.50;82.70;;;;;;5057126;28;20472;-52
2023/12/30 04:51:47;;;;;;;10.30;2.83;;;10.50;82.80;;;;;;5056380;28;20074;-51
2023/12/30 04:54:15;;;;;;;7.03;2.28;;;10.50;83.20;;;;;;5056602;28;20043;-55
2023/12/30 04:56:42;;;;;;;11.45;2.88;;;10.50;82.90;;;;;;5060131;28;20040;-57
2023/12/30 04:59:09;;;;;;;11.80;3.10;;;10.50;83.10;;;;;;5052431;28;20079;-55
2023/12/30 05:01:36;;;;;;;9.57;2.20;;;10.50;83.10;;;;;;5047478;28;20057;-57
2023/12/30 05:04:05;;;;;;;11.85;3.20;;;10.50;83.30;;;;;;5048976;28;20666;-54
2023/12/30 05:06:32;;;;;;;8.88;2.35;;;10.50;83.50;;;;;;5044660;28;20049;-55
2023/12/30 05:09:05;;;;;;;10.85;2.45;;;10.50;83.60;;;;;;5056662;28;20413;-53
2023/12/30 05:11:36;;;;;;;7.68;2.80;;;10.60;83.50;;;;;;5063732;28;20044;-55
2023/12/30 05:14:06;;;;;;;11.07;3.30;;;10.40;83.30;;;;;;5063000;28;20503;-56
2023/12/30 05:16:43;;;;;;;8.85;2.45;;;10.60;83.40;;;;;;5047313;28;20048;-53
2023/12/30 05:19:12;;;;;;;8.85;2.78;;;10.70;83.30;;;;;;5054250;28;20052;-53
2023/12/30 05:21:41;;;;;;;10.60;2.53;;;10.60;83.10;;;;;;5057474;28;20086;-54
2023/12/30 05:24:10;;;;;;;4.30;2.45;;;10.70;83.10;;;;;;5052252;28;20059;-56
2023/12/30 05:26:38;;;;;;;8.48;3.22;;;10.70;82.90;;;;;;5062217;28;20052;-56
2023/12/30 05:29:10;;;;;;;8.60;2.40;;;10.70;82.80;;;;;;5065948;28;20086;-55
2023/12/30 05:31:50;;;;;;;8.52;3.17;;;10.70;82.70;;;;;;5047007;28;20098;-55
2023/12/30 05:34:22;;;;;;;10.68;3.00;;;10.70;82.60;;;;;;5057275;28;20048;-56
2023/12/30 05:36:51;;;;;;;10.05;3.22;;;10.60;82.50;;;;;;5063728;28;20045;-54
2023/12/30 05:39:20;;;;;;;9.43;2.35;;;10.60;82.60;;;;;;5049372;28;20048;-55
2023/12/30 05:41:49;;;;;;;10.32;3.35;;;10.60;82.50;;;;;;5056952;28;20043;-53
2023/12/30 05:44:20;;;;;;;12.40;3.22;;;10.60;82.50;;;;;;5061649;28;20040;-56
2023/12/30 05:46:47;;;;;;;5.90;2.83;;;10.60;82.50;;;;;;5063202;28;20143;-55
2023/12/30 05:49:17;;;;;;;5.22;2.92;;;10.60;82.60;;;;;;5054335;28;20071;-55
2023/12/30 05:51:52;;;;;;;12.30;3.00;;;10.60;82.60;;;;;;5056934;28;20037;-53
2023/12/30 05:54:19;;;;;;;11.38;3.47;;;10.50;82.60;;;;;;5050219;28;20036;-53
2023/12/30 05:56:48;;;;;;;9.40;3.40;;;10.50;82.60;;;;;;5063672;28;20585;-55
2023/12/30 05:59:17;;;;;;;10.48;3.00;;;10.50;82.50;;;;;;5050241;28;20072;-55
2023/12/30 06:01:47;;;;;;;11.43;2.70;;;10.50;82.50;;;;;;5047990;28;20073;-55
2023/12/30 06:04:16;;;;;;;11.35;2.85;;;10.50;82.50;;;;;;5049498;28;20067;-56
2023/12/30 06:06:45;;;;;;;9.45;3.22;;;10.50;82.50;;;;;;5046927;28;20036;-53
2023/12/30 06:09:15;;;;;;;9.15;2.67;;;10.40;82.40;;;;;;5058532;28;20071;-55
2023/12/30 06:11:49;;;;;;;9.15;3.08;;;10.40;82.40;;;;;;5064312;28;20048;-56
2023/12/30 06:14:18;;;;;;;11.18;2.58;;;10.40;83.00;;;;;;5066953;28;20518;-56
2023/12/30 06:16:45;;;;;;;8.85;2.50;;;10.40;82.50;;;;;;5047665;28;20045;-54
2023/12/30 06:19:13;;;;;;;7.00;2.70;;;10.40;82.50;;;;;;5066261;28;20056;-54
2023/12/30 06:21:43;;;;;;;6.65;2.45;;;10.40;82.60;;;;;;5060563;28;20094;-53
2023/12/30 06:24:12;;;;;;;9.18;3.20;;;10.30;82.50;;;;;;5055202;28;20564;-54
2023/12/30 06:26:40;;;;;;;9.73;2.67;;;10.30;82.50;;;;;;5067379;28;20123;-54
2023/12/30 06:29:13;;;;;;;9.88;2.50;;;10.30;82.50;;;;;;5070608;28;20044;-52
2023/12/30 06:31:41;;;;;;;7.57;2.97;;;10.30;82.50;;;;;;5066510;28;20437;-55
2023/12/30 06:34:11;;;;;;;11.98;2.97;;;10.30;82.40;;;;;;5061721;28;20452;-56
2023/12/30 06:36:41;;;;;;;7.78;2.65;;;10.30;82.40;;;;;;5069764;28;20036;-56
2023/12/30 06:39:13;;;;;;;10.48;2.60;;;10.30;82.50;;;;;;5057408;28;20036;-54
2023/12/30 06:41:40;;;;;;;9.45;2.50;;;10.30;82.50;;;;;;5054083;28;20048;-55
2023/12/30 06:44:12;;;;;;;8.32;2.22;;;10.30;82.50;;;;;;5058696;28;20044;-52
2023/12/30 06:46:45;;;;;;;7.45;2.67;;;10.20;82.40;;;;;;5067316;28;20048;-55
2023/12/30 06:49:15;;;;;;;8.77;2.10;;;10.20;82.50;;;;;;5059028;28;20044;-56
2023/12/30 06:51:46;;;;;;;6.00;2.45;;;10.20;82.50;;;;;;5055396;28;20091;-52
2023/12/30 06:54:13;;;;;;;6.68;2.83;;;10.20;82.50;;;;;;5055155;28;20033;-56
2023/12/30 06:56:40;;;;;;;8.38;2.20;;;10.20;82.40;;;;;;5067561;28;20090;-54
2023/12/30 06:59:20;;;;;;;;;;;;;;;;;;;;;
2023/12/30 07:01:53;;;;;;;9.98;2.47;;;10.20;82.60;;;;;;5051114;28;20063;-55
2023/12/30 07:04:26;;;;;;;6.05;2.28;;;10.10;82.60;;;;;;5052830;28;20037;-55
2023/12/30 07:06:56;;;;;;;6.53;2.47;;;10.10;82.80;;;;;;5054545;28;20045;-53
2023/12/30 07:09:22;;;;;;;7.05;2.42;;;10.10;82.90;;;;;;5067246;28;20041;-53
2023/12/30 07:11:56;;;;;;;8.20;2.20;;;10.20;83.00;;;;;;5070134;28;20040;-56
2023/12/30 07:14:23;;;;;;;8.38;2.40;;;10.20;83.20;;;;;;5056001;28;20033;-55
2023/12/30 07:16:50;;;;;;;7.82;2.60;;;10.20;83.20;;;;;;5057527;28;20121;-57
2023/12/30 07:19:17;;;;;;;6.78;2.25;;;10.20;83.30;;;;;;5071622;28;20123;-56
2023/12/30 07:21:46;;;;;;;8.05;2.50;;;10.20;83.30;;;;;;5061174;28;20050;-54
2023/12/30 07:24:14;;;;;;;10.25;2.58;;;10.20;83.40;;;;;;5045954;28;20464;-53
2023/12/30 07:26:43;;;;;;;8.15;2.72;;;10.20;83.40;;;;;;5065043;28;20124;-54
2023/12/30 07:29:17;;;;;;;14.13;3.55;;;10.30;83.60;;;;;;5070522;28;20040;-53
2023/12/30 07:31:50;;;;;;;8.13;2.85;;;10.30;83.60;;;;;;5055543;28;20041;-56
2023/12/30 07:34:18;;;;;;;10.27;3.28;;;10.30;83.50;;;;;;5066088;28;20033;-53
2023/12/30 07:36:52;;;;;;;9.90;2.53;;;10.40;83.50;;;;;;5071306;28;20047;-54
2023/12/30 07:39:24;;;;;;;9.73;3.40;;;10.40;83.50;;;;;;5064162;28;20507;-56
2023/12/30 07:41:50;;;;;;;10.88;3.30;;;10.40;83.40;;;;;;5053936;28;20045;-54
2023/12/30 07:44:18;;;;;;;10.07;2.88;;;10.40;83.40;;;;;;5067732;28;20641;-55
2023/12/30 07:46:45;;;;;;;11.07;3.30;;;10.40;83.30;;;;;;5068358;28;20120;-56
2023/12/30 07:49:17;;;;;;;6.63;2.72;;;10.40;83.20;;;;;;5046843;28;20096;-55
2023/12/30 07:51:49;;;;;;;;;;;10.40;83.20;;;;;;5044777;28;20068;-56
2023/12/30 07:54:15;;;;;;;9.82;2.70;;;10.50;83.90;;;;;;5043998;28;19964;-55
2023/12/30 07:56:45;;;;;;;10.13;3.40;;;10.50;82.80;;;;;;5048970;28;20514;-55
2023/12/30 07:59:15;;;;;;;9.43;3.30;;;10.50;82.90;;;;;;5047062;28;20037;-53
2023/12/30 08:01:43;;;;;;;8.18;2.80;;;10.50;83.10;;;;;;5051101;28;20037;-53
2023/12/30 08:04:15;;;;;;;12.85;3.70;;;10.50;83.10;;;;;;5044945;28;20029;-53
2023/12/30 08:06:42;;;;;;;10.10;3.20;;;10.50;83.10;;;;;;5049553;28;20033;-55
2023/12/30 08:09:12;;;;;;;9.68;3.47;;;10.50;83.10;;;;;;5045089;28;20037;-57
2023/12/30 08:11:38;;;;;;;10.85;3.08;;;10.50;83.10;;;;;;5051893;28;20442;-55
2023/12/30 08:14:24;;;;;;;7.95;3.05;;;10.50;83.20;;;;;;5051649;28;20419;-54
2023/12/30 08:16:53;;;;;;;10.88;4.30;;;10.50;83.40;;;;;;5044696;28;20400;-55
2023/12/30 08:19:26;;;;;;;7.65;3.13;;;10.50;83.40;;;;;;5052311;28;20129;-55
2023/12/30 08:21:53;;;;;;;8.20;2.77;;;10.60;83.60;;;;;;5051667;28;20705;-56
2023/12/30 08:24:24;;;;;;;8.38;3.60;;;10.60;83.60;;;;;;5048659;28;20044;-54
2023/12/30 08:26:54;;;;;;;13.13;3.25;;;10.60;83.60;;;;;;5052742;28;20033;-56
2023/12/30 08:29:24;;;;;;;9.32;3.55;;;10.60;83.60;;;;;;5052054;28;20732;-54
2023/12/30 08:31:55;;;;;;;9.80;3.15;;;10.70;83.60;;;;;;5049761;28;20041;-55
2023/12/30 08:34:27;;;;;;;5.22;2.65;;;10.70;83.60;;;;;;5050718;28;20083;-56
2023/12/30 08:36:55;;;;;;;11.18;3.42;;;10.70;83.70;;;;;;5052720;28;20116;-56
2023/12/30 08:39:22;;;;;;;7.90;3.35;;;10.80;83.70;;;;;;5052134;28;20120;-57
2023/12/30 08:41:51;;;;;;;8.50;3.80;;;10.80;84.40;;;;;;5047272;28;20216;-56
2023/12/30 08:44:23;;;;;;;11.75;3.10;;;10.80;83.60;;;;;;5052815;28;20550;-56
2023/12/30 08:46:55;;;;;;;11.13;3.50;;;10.90;83.50;;;;;;5051458;28;20048;-56
2023/12/30 08:49:23;;;;;;;12.85;3.17;;;10.90;83.30;;;;;;5050175;28;20446;-56
2023/12/30 08:51:50;;;;;;;13.77;4.50;;;10.90;83.30;;;;;;5046596;28;20396;-55
2023/12/30 08:54:16;;;;;;;11.05;4.07;;;11.00;83.30;;;;;;5049255;28;20044;-57
2023/12/30 08:56:43;;;;;;;9.80;3.42;;;11.00;83.20;;;;;;5049798;28;20045;-55
2023/12/30 08:59:14;;;;;;;13.35;3.88;;;11.00;83.20;;;;;;5041312;28;20071;-56
2023/12/30 09:01:44;;;;;;;14.80;4.18;;;11.10;83.10;;;;;;5049890;28;20434;-56
2023/12/30 09:04:13;;;;;;;6.95;3.55;;;11.10;83.00;;;;;;5043711;28;20514;-53
2023/12/30 09:06:42;;;;;;;8.82;3.38;;;11.10;82.90;;;;;;5050161;28;20052;-56
2023/12/30 09:09:12;;;;;;;14.02;4.15;;;11.10;82.80;;;;;;5048952;28;20511;-55
2023/12/30 09:11:39;;;;;;;10.43;3.60;;;11.20;82.70;;;;;;5051831;28;20475;-55
2023/12/30 09:14:06;;;;;;;13.50;3.70;;;11.20;82.60;;;;;;5052935;28;20036;-56
2023/12/30 09:16:36;;;;;;;12.13;4.10;;;11.30;82.60;;;;;;5051927;28;20047;-55
2023/12/30 09:19:05;;;;;;;14.80;4.80;;;11.30;82.60;;;;;;5046347;28;20033;-55
2023/12/30 09:21:50;;;;;;;;;;;;;;;;;;;;;
2023/12/30 09:24:20;;;;;;;8.70;3.45;;;11.30;82.00;;;;;;5048725;28;20044;-55
2023/12/30 09:26:47;;;;;;;10.27;3.78;;;11.40;81.80;;;;;;5053473;28;20439;-56
2023/12/30 09:29:17;;;;;;;13.63;4.53;;;11.40;81.70;;;;;;5052560;28;20084;-55
2023/12/30 09:31:44;;;;;;;13.38;3.92;;;11.40;81.70;;;;;;5049204;28;20073;-56
2023/12/30 09:34:11;;;;;;;13.63;3.63;;;11.40;81.50;;;;;;5053613;28;20430;-56
2023/12/30 09:36:43;;;;;;;12.95;4.28;;;11.50;81.40;;;;;;5052980;28;20047;-55
2023/12/30 09:39:11;;;;;;;12.93;3.60;;;11.50;81.30;;;;;;5053688;28;20044;-56
2023/12/30 09:41:41;;;;;;;9.75;4.10;;;11.50;81.20;;;;;;5044635;28;20068;-55
2023/12/30 09:44:12;;;;;;;8.18;3.65;;;11.60;81.20;;;;;;5051232;28;20045;-55
2023/12/30 09:46:40;;;;;;;8.10;3.53;;;11.60;81.00;;;;;;5052849;28;20071;-52
2023/12/30 09:49:07;;;;;;;12.77;3.65;;;11.60;80.90;;;;;;5043977;28;20521;-55
2023/12/30 09:51:34;;;;;;;9.48;4.43;;;11.70;80.80;;;;;;5048971;28;20037;-54
2023/12/30 09:54:13;;;;;;;13.48;5.22;;;11.70;80.50;;;;;;5048420;28;20419;-57
2023/12/30 09:56:41;;;;;;;9.55;3.75;;;11.80;80.30;;;;;;5052636;28;20053;-53
2023/12/30 09:59:13;;;;;;;11.15;3.88;;;11.80;80.20;;;;;;5052222;28;20398;-55
2023/12/30 10:01:45;;;;;;;12.50;4.15;;;11.80;80.00;;;;;;5049636;28;20067;-55
2023/12/30 10:04:13;;;;;;;10.00;3.53;;;11.90;79.60;;;;;;5053776;28;20164;-54
2023/12/30 10:06:43;;;;;;;11.68;4.60;;;11.90;79.40;;;;;;5053039;28;20052;-56
2023/12/30 10:09:19;;;;;;;13.77;4.88;;;11.90;79.20;;;;;;5049915;28;20048;-57
2023/12/30 10:11:47;;;;;;;11.43;4.55;;;11.90;79.10;;;;;;5048370;28;20096;-52
2023/12/30 10:14:19;;;;;;;7.88;4.45;;;12.00;79.00;;;;;;5053817;28;20040;-54
2023/12/30 10:16:48;;;;;;;9.85;4.88;;;12.00;78.70;;;;;;5054196;28;20045;-55
2023/12/30 10:19:19;;;;;;;10.85;4.47;;;12.00;78.70;;;;;;5053870;28;20064;-56
2023/12/30 10:21:47;;;;;;;10.05;4.28;;;12.10;78.40;;;;;;5049966;28;20456;-55
2023/12/30 10:24:14;;;;;;;9.05;4.28;;;12.10;78.40;;;;;;5050139;28;20064;-55
2023/12/30 10:26:49;;;;;;;10.40;3.75;;;12.10;78.20;;;;;;5050688;28;20526;-55
2023/12/30 10:29:19;;;;;;;;;;;12.10;77.90;;;;;;5054642;28;20095;-56
2023/12/30 10:32:03;;;;;;;8.88;3.55;;;12.20;78.00;;;;;;5045198;28;19925;-55
2023/12/30 10:34:31;;;;;;;9.70;3.40;;;12.20;77.60;;;;;;5052978;28;20037;-55
2023/12/30 10:37:04;;;;;;;12.10;2.97;;;12.20;77.80;;;;;;5055513;28;20083;-56
2023/12/30 10:39:34;;;;;;;6.75;3.15;;;12.20;77.60;;;;;;5052992;28;20033;-56
2023/12/30 10:42:04;;;;;;;6.32;3.60;;;12.20;77.50;;;;;;5050677;28;20059;-57
2023/12/30 10:44:31;;;;;;;7.47;2.97;;;12.20;77.50;;;;;;5052462;28;20033;-56
2023/12/30 10:47:07;;;;;;;9.80;3.35;;;12.20;77.40;;;;;;5054551;28;20095;-55
2023/12/30 10:49:44;;;;;;;11.98;3.50;;;12.30;77.30;;;;;;5051932;28;20044;-57
2023/12/30 10:52:23;;;;;;;7.13;2.60;;;12.30;77.30;;;;;;5046824;28;20071;-54
2023/12/30 10:55:01;;;;;;;6.55;2.95;;;12.30;77.00;;;;;;5051058;28;20072;-55
2023/12/30 10:57:31;;;;;;;9.68;3.20;;;12.30;77.00;;;;;;5052821;28;20048;-55
2023/12/30 11:00:00;;;;;;;9.63;2.95;;;12.40;76.90;;;;;;5048855;28;20041;-56
2023/12/30 11:02:30;;;;;;;5.50;3.05;;;12.40;76.90;;;;;;5049116;28;20147;-55
2023/12/30 11:05:01;;;;;;;12.57;3.45;;;12.40;76.70;;;;;;5053234;28;20408;-55
2023/12/30 11:07:31;;;;;;;9.95;3.13;;;12.50;76.60;;;;;;5049740;28;20064;-57
2023/12/30 11:10:19;;;;;;;11.13;2.83;;;12.50;76.50;;;;;;5060347;28;20045;-57
2023/12/30 11:12:53;;;;;;;6.82;3.03;;;12.60;75.70;;;;;;5058689;28;20041;-57
2023/12/30 11:15:24;;;;;;;8.40;2.90;;;12.60;76.30;;;;;;5058215;28;20044;-56
2023/12/30 11:17:53;;;;;;;11.48;2.55;;;12.60;76.30;;;;;;5056497;28;20037;-54
2023/12/30 11:20:28;;;;;;;7.45;3.33;;;12.70;76.40;;;;;;5056318;28;20045;-57
2023/12/30 11:22:58;;;;;;;11.18;2.58;;;12.70;75.90;;;;;;5056699;28;20418;-56
2023/12/30 11:25:43;;;;;;;10.20;2.63;;;12.80;75.70;;;;;;5057964;28;20047;-55
2023/12/30 11:28:22;;;;;;;8.85;3.08;;;12.80;75.30;;;;;;5056268;28;20497;-56
2023/12/30 11:30:57;;;;;;;9.75;2.97;;;12.80;75.60;;;;;;5058234;28;20033;-57
2023/12/30 11:33:25;;;;;;;7.28;2.58;;;12.80;74.90;;;;;;5050939;28;20067;-57
2023/12/30 11:35:55;;;;;;;11.63;2.90;;;12.90;75.20;;;;;;5057656;28;20040;-55
2023/12/30 11:38:30;;;;;;;8.18;3.20;;;12.90;74.80;;;;;;5058961;28;20047;-57
2023/12/30 11:40:59;;;;;;;11.60;3.10;;;12.90;74.90;;;;;;5059333;28;20061;-56
2023/12/30 11:43:26;;;;;;;5.72;3.03;;;12.90;74.70;;;;;;5055020;28;20064;-53
2023/12/30 11:45:54;;;;;;;8.02;2.75;;;12.90;74.50;;;;;;5056117;28;20041;-56
2023/12/30 11:48:23;;;;;;;6.47;2.50;;;13.00;74.50;;;;;;5057836;28;20514;-57
2023/12/30 11:50:53;;;;;;;9.45;2.58;;;13.00;74.20;;;;;;5054691;28;20064;-57
2023/12/30 11:53:24;;;;;;;11.23;3.17;;;13.00;74.00;;;;;;5050560;28;20411;-54
2023/12/30 11:55:53;;;;;;;5.60;2.23;;;13.00;73.90;;;;;;5060002;28;20044;-52
2023/12/30 11:58:22;;;;;;;9.98;2.95;;;13.00;73.80;;;;;;5053741;28;20033;-55
2023/12/30 12:00:49;;;;;;;7.72;2.30;;;13.00;73.60;;;;;;5048936;28;20048;-57
2023/12/30 12:03:18;;;;;;;7.22;2.33;;;13.00;73.50;;;;;;5050628;28;20049;-56
2023/12/30 12:05:47;;;;;;;6.88;2.35;;;13.00;73.40;;;;;;5049070;28;20480;-56
2023/12/30 12:08:14;;;;;;;5.80;1.85;;;13.00;73.50;;;;;;5055594;28;20049;-56
2023/12/30 12:10:41;;;;;;;8.13;3.20;;;13.00;73.60;;;;;;5056854;28;20041;-56
2023/12/30 12:13:09;;;;;;;11.98;3.60;;;13.00;74.40;;;;;;5059370;28;20037;-57
2023/12/30 12:15:39;;;;;;;7.75;2.55;;;13.00;73.60;;;;;;5055044;28;20079;-57
2023/12/30 12:18:10;;;;;;;8.80;2.80;;;13.10;73.40;;;;;;5060146;28;20094;-56
2023/12/30 12:20:42;;;;;;;5.30;2.10;;;13.10;72.90;;;;;;5055413;28;20124;-57
2023/12/30 12:23:18;;;;;;;5.10;1.83;;;13.10;72.60;;;;;;5048573;28;20131;-57
2023/12/30 12:25:45;;;;;;;6.80;2.70;;;13.10;72.40;;;;;;5056312;28;20068;-57
2023/12/30 12:28:16;;;;;;;7.90;2.67;;;13.10;72.60;;;;;;5061119;28;20465;-57
2023/12/30 12:30:47;;;;;;;8.00;2.47;;;13.20;72.40;;;;;;5058331;28;20059;-55
2023/12/30 12:33:18;;;;;;;10.43;2.90;;;13.20;72.30;;;;;;5054865;28;20041;-57
2023/12/30 12:35:45;;;;;;;5.47;2.08;;;13.20;72.00;;;;;;5055784;28;20404;-57
2023/12/30 12:38:17;;;;;;;10.10;2.13;;;13.20;72.00;;;;;;5061277;28;20064;-55
2023/12/30 12:40:45;;;;;;;8.25;2.03;;;13.20;71.50;;;;;;5058706;28;20629;-57
2023/12/30 12:43:12;;;;;;;5.47;1.95;;;13.20;71.60;;;;;;5052109;28;20036;-55
2023/12/30 12:45:40;;;;;;;7.68;2.03;;;13.20;71.40;;;;;;5055407;28;20041;-57
2023/12/30 12:48:10;;;;;;;10.23;2.13;;;13.20;71.10;;;;;;5054814;28;20119;-56
2023/12/30 12:50:37;;;;;;;6.70;1.75;;;13.30;71.10;;;;;;5053449;28;20083;-57
2023/12/30 12:53:06;;;;;;;5.90;2.65;;;13.30;70.90;;;;;;5052270;28;20041;-57
2023/12/30 12:55:37;;;;;;;7.53;2.05;;;13.30;70.90;;;;;;5054499;28;20033;-57
2023/12/30 12:58:07;;;;;;;;;;;13.30;71.20;;;;;;5048806;28;20778;-54